sensor_id;sensor_type;location;lat;lon;timestamp;P1;durP1;ratioP1;P2;durP2;ratioP2
13487;SDS011;6816;48.506;9.050;2023-07-16T00:01:03;2.58;;;1.67;;
13487;SDS011;6816;48.506;9.050;2023-07-16T00:04:03;2.90;;;2.10;;
13487;SDS011;6816;48.506;9.050;2023-07-16T00:07:04;2.78;;;1.77;;
13487;SDS011;6816;48.506;9.050;2023-07-16T00:10:05;2.35;;;2.03;;
13487;SDS011;6816;48.506;9.050;2023-07-16T00:13:06;2.47;;;2.05;;
13487;SDS011;6816;48.506;9.050;2023-07-16T00:16:06;2.20;;;2.00;;
13487;SDS011;6816;48.506;9.050;2023-07-16T00:19:09;2.28;;;2.00;;
13487;SDS011;6816;48.506;9.050;2023-07-16T00:22:10;4.25;;;1.83;;
13487;SDS011;6816;48.506;9.050;2023-07-16T00:25:11;2.03;;;1.90;;
13487;SDS011;6816;48.506;9.050;2023-07-16T00:28:12;1.83;;;1.73;;
13487;SDS011;6816;48.506;9.050;2023-07-16T00:31:12;2.60;;;1.70;;
13487;SDS011;6816;48.506;9.050;2023-07-16T00:34:13;2.45;;;1.92;;
13487;SDS011;6816;48.506;9.050;2023-07-16T00:37:13;1.65;;;1.55;;
13487;SDS011;6816;48.506;9.050;2023-07-16T00:40:14;2.53;;;1.83;;
13487;SDS011;6816;48.506;9.050;2023-07-16T00:43:15;1.83;;;1.73;;
13487;SDS011;6816;48.506;9.050;2023-07-16T00:46:16;1.80;;;1.70;;
13487;SDS011;6816;48.506;9.050;2023-07-16T00:49:17;1.70;;;1.60;;
13487;SDS011;6816;48.506;9.050;2023-07-16T00:52:18;1.60;;;1.50;;
13487;SDS011;6816;48.506;9.050;2023-07-16T00:55:20;3.22;;;1.17;;
13487;SDS011;6816;48.506;9.050;2023-07-16T00:58:21;1.20;;;1.10;;
13487;SDS011;6816;48.506;9.050;2023-07-16T01:01:22;1.25;;;1.15;;
13487;SDS011;6816;48.506;9.050;2023-07-16T01:04:22;0.85;;;0.85;;
13487;SDS011;6816;48.506;9.050;2023-07-16T01:07:23;1.27;;;1.13;;
13487;SDS011;6816;48.506;9.050;2023-07-16T01:10:26;1.20;;;0.88;;
13487;SDS011;6816;48.506;9.050;2023-07-16T01:13:28;3.70;;;1.00;;
13487;SDS011;6816;48.506;9.050;2023-07-16T01:16:29;2.25;;;1.20;;
13487;SDS011;6816;48.506;9.050;2023-07-16T01:19:30;1.08;;;0.95;;
13487;SDS011;6816;48.506;9.050;2023-07-16T01:22:35;1.13;;;1.02;;
13487;SDS011;6816;48.506;9.050;2023-07-16T01:29:33;1.00;;;0.98;;
13487;SDS011;6816;48.506;9.050;2023-07-16T01:32:36;0.82;;;0.82;;
13487;SDS011;6816;48.506;9.050;2023-07-16T01:35:37;0.80;;;0.80;;
13487;SDS011;6816;48.506;9.050;2023-07-16T01:38:40;1.45;;;1.10;;
13487;SDS011;6816;48.506;9.050;2023-07-16T01:41:41;0.85;;;0.85;;
13487;SDS011;6816;48.506;9.050;2023-07-16T01:44:41;0.90;;;0.90;;
13487;SDS011;6816;48.506;9.050;2023-07-16T01:51:01;1.45;;;0.90;;
13487;SDS011;6816;48.506;9.050;2023-07-16T01:54:02;1.20;;;1.10;;
13487;SDS011;6816;48.506;9.050;2023-07-16T01:57:03;1.20;;;1.10;;
13487;SDS011;6816;48.506;9.050;2023-07-16T02:00:04;0.95;;;0.90;;
13487;SDS011;6816;48.506;9.050;2023-07-16T02:03:05;3.78;;;1.00;;
13487;SDS011;6816;48.506;9.050;2023-07-16T02:06:06;2.63;;;1.05;;
13487;SDS011;6816;48.506;9.050;2023-07-16T02:09:07;1.02;;;0.98;;
13487;SDS011;6816;48.506;9.050;2023-07-16T02:12:08;1.23;;;0.98;;
13487;SDS011;6816;48.506;9.050;2023-07-16T02:15:09;1.23;;;0.93;;
13487;SDS011;6816;48.506;9.050;2023-07-16T02:18:10;0.85;;;0.82;;
13487;SDS011;6816;48.506;9.050;2023-07-16T02:21:10;0.85;;;0.85;;
13487;SDS011;6816;48.506;9.050;2023-07-16T02:24:12;1.40;;;1.00;;
13487;SDS011;6816;48.506;9.050;2023-07-16T02:27:13;1.02;;;0.93;;
13487;SDS011;6816;48.506;9.050;2023-07-16T02:30:14;1.52;;;0.93;;
13487;SDS011;6816;48.506;9.050;2023-07-16T02:33:15;1.15;;;0.85;;
13487;SDS011;6816;48.506;9.050;2023-07-16T02:36:16;3.58;;;0.80;;
13487;SDS011;6816;48.506;9.050;2023-07-16T02:39:16;0.82;;;0.82;;
13487;SDS011;6816;48.506;9.050;2023-07-16T02:42:17;4.05;;;1.08;;
13487;SDS011;6816;48.506;9.050;2023-07-16T02:45:17;2.13;;;0.90;;
13487;SDS011;6816;48.506;9.050;2023-07-16T02:48:18;1.27;;;1.02;;
13487;SDS011;6816;48.506;9.050;2023-07-16T02:51:19;1.10;;;1.00;;
13487;SDS011;6816;48.506;9.050;2023-07-16T02:54:19;1.23;;;1.05;;
13487;SDS011;6816;48.506;9.050;2023-07-16T02:57:21;1.00;;;0.88;;
13487;SDS011;6816;48.506;9.050;2023-07-16T03:00:22;3.05;;;1.00;;
13487;SDS011;6816;48.506;9.050;2023-07-16T03:03:22;1.35;;;1.15;;
13487;SDS011;6816;48.506;9.050;2023-07-16T03:06:23;3.63;;;1.10;;
13487;SDS011;6816;48.506;9.050;2023-07-16T03:09:24;1.85;;;1.15;;
13487;SDS011;6816;48.506;9.050;2023-07-16T03:12:24;1.75;;;0.80;;
13487;SDS011;6816;48.506;9.050;2023-07-16T03:15:25;1.13;;;0.90;;
13487;SDS011;6816;48.506;9.050;2023-07-16T03:18:29;1.02;;;1.00;;
13487;SDS011;6816;48.506;9.050;2023-07-16T03:21:30;1.35;;;0.90;;
13487;SDS011;6816;48.506;9.050;2023-07-16T03:24:31;1.02;;;0.80;;
13487;SDS011;6816;48.506;9.050;2023-07-16T03:27:31;1.05;;;0.95;;
13487;SDS011;6816;48.506;9.050;2023-07-16T03:30:33;1.60;;;0.95;;
13487;SDS011;6816;48.506;9.050;2023-07-16T03:33:33;2.13;;;1.20;;
13487;SDS011;6816;48.506;9.050;2023-07-16T03:36:34;1.45;;;1.10;;
13487;SDS011;6816;48.506;9.050;2023-07-16T03:39:34;1.10;;;1.00;;
13487;SDS011;6816;48.506;9.050;2023-07-16T03:42:35;0.90;;;0.90;;
13487;SDS011;6816;48.506;9.050;2023-07-16T03:45:35;2.08;;;1.10;;
13487;SDS011;6816;48.506;9.050;2023-07-16T03:48:36;1.85;;;1.20;;
13487;SDS011;6816;48.506;9.050;2023-07-16T03:51:37;1.17;;;1.08;;
13487;SDS011;6816;48.506;9.050;2023-07-16T03:54:37;2.78;;;1.10;;
13487;SDS011;6816;48.506;9.050;2023-07-16T03:57:38;2.28;;;1.58;;
13487;SDS011;6816;48.506;9.050;2023-07-16T04:00:40;1.20;;;1.10;;
13487;SDS011;6816;48.506;9.050;2023-07-16T04:03:41;1.60;;;1.23;;
13487;SDS011;6816;48.506;9.050;2023-07-16T04:06:41;2.35;;;1.20;;
13487;SDS011;6816;48.506;9.050;2023-07-16T04:09:42;1.38;;;1.10;;
13487;SDS011;6816;48.506;9.050;2023-07-16T04:12:43;1.30;;;1.20;;
13487;SDS011;6816;48.506;9.050;2023-07-16T04:15:43;1.50;;;1.40;;
13487;SDS011;6816;48.506;9.050;2023-07-16T04:18:44;1.48;;;0.95;;
13487;SDS011;6816;48.506;9.050;2023-07-16T04:21:44;1.45;;;1.15;;
13487;SDS011;6816;48.506;9.050;2023-07-16T04:24:45;2.67;;;1.27;;
13487;SDS011;6816;48.506;9.050;2023-07-16T04:27:45;3.33;;;1.40;;
13487;SDS011;6816;48.506;9.050;2023-07-16T04:30:46;2.60;;;1.02;;
13487;SDS011;6816;48.506;9.050;2023-07-16T04:33:47;1.52;;;1.17;;
13487;SDS011;6816;48.506;9.050;2023-07-16T04:36:47;3.67;;;1.45;;
13487;SDS011;6816;48.506;9.050;2023-07-16T04:39:48;2.08;;;1.27;;
13487;SDS011;6816;48.506;9.050;2023-07-16T04:42:48;1.40;;;1.30;;
13487;SDS011;6816;48.506;9.050;2023-07-16T04:45:49;2.13;;;1.10;;
13487;SDS011;6816;48.506;9.050;2023-07-16T04:48:50;3.22;;;1.23;;
13487;SDS011;6816;48.506;9.050;2023-07-16T04:51:50;3.15;;;1.83;;
13487;SDS011;6816;48.506;9.050;2023-07-16T04:54:51;3.67;;;1.40;;
13487;SDS011;6816;48.506;9.050;2023-07-16T04:57:52;2.83;;;1.15;;
13487;SDS011;6816;48.506;9.050;2023-07-16T05:00:53;2.28;;;1.33;;
13487;SDS011;6816;48.506;9.050;2023-07-16T05:03:54;1.55;;;1.35;;
13487;SDS011;6816;48.506;9.050;2023-07-16T05:06:54;4.30;;;1.38;;
13487;SDS011;6816;48.506;9.050;2023-07-16T05:09:55;2.83;;;1.30;;
13487;SDS011;6816;48.506;9.050;2023-07-16T05:12:56;2.60;;;1.20;;
13487;SDS011;6816;48.506;9.050;2023-07-16T05:15:56;6.20;;;1.63;;
13487;SDS011;6816;48.506;9.050;2023-07-16T05:18:57;1.30;;;1.20;;
13487;SDS011;6816;48.506;9.050;2023-07-16T05:21:57;4.90;;;1.30;;
13487;SDS011;6816;48.506;9.050;2023-07-16T05:24:58;1.25;;;1.15;;
13487;SDS011;6816;48.506;9.050;2023-07-16T05:27:59;1.95;;;1.40;;
13487;SDS011;6816;48.506;9.050;2023-07-16T05:31:00;1.55;;;1.45;;
13487;SDS011;6816;48.506;9.050;2023-07-16T05:34:01;2.20;;;1.48;;
13487;SDS011;6816;48.506;9.050;2023-07-16T05:37:01;2.88;;;1.63;;
13487;SDS011;6816;48.506;9.050;2023-07-16T05:40:02;1.67;;;1.48;;
13487;SDS011;6816;48.506;9.050;2023-07-16T05:43:03;3.20;;;1.55;;
13487;SDS011;6816;48.506;9.050;2023-07-16T05:46:04;3.08;;;1.50;;
13487;SDS011;6816;48.506;9.050;2023-07-16T05:49:05;4.20;;;1.50;;
13487;SDS011;6816;48.506;9.050;2023-07-16T05:52:06;4.38;;;1.52;;
13487;SDS011;6816;48.506;9.050;2023-07-16T05:55:07;4.22;;;1.95;;
13487;SDS011;6816;48.506;9.050;2023-07-16T05:58:08;3.13;;;1.30;;
13487;SDS011;6816;48.506;9.050;2023-07-16T06:01:09;2.97;;;1.40;;
13487;SDS011;6816;48.506;9.050;2023-07-16T06:04:09;2.47;;;1.38;;
13487;SDS011;6816;48.506;9.050;2023-07-16T06:07:10;2.22;;;1.38;;
13487;SDS011;6816;48.506;9.050;2023-07-16T06:10:12;6.20;;;1.33;;
13487;SDS011;6816;48.506;9.050;2023-07-16T06:13:12;1.95;;;1.50;;
13487;SDS011;6816;48.506;9.050;2023-07-16T06:16:13;2.83;;;1.40;;
13487;SDS011;6816;48.506;9.050;2023-07-16T06:19:17;2.28;;;1.48;;
13487;SDS011;6816;48.506;9.050;2023-07-16T06:22:17;2.58;;;1.75;;
13487;SDS011;6816;48.506;9.050;2023-07-16T06:25:18;3.80;;;2.45;;
13487;SDS011;6816;48.506;9.050;2023-07-16T06:28:19;7.28;;;1.33;;
13487;SDS011;6816;48.506;9.050;2023-07-16T06:31:20;2.15;;;1.38;;
13487;SDS011;6816;48.506;9.050;2023-07-16T06:34:22;2.35;;;1.50;;
13487;SDS011;6816;48.506;9.050;2023-07-16T06:37:23;2.22;;;1.40;;
13487;SDS011;6816;48.506;9.050;2023-07-16T06:40:26;2.90;;;1.30;;
13487;SDS011;6816;48.506;9.050;2023-07-16T06:43:28;3.08;;;1.45;;
13487;SDS011;6816;48.506;9.050;2023-07-16T06:46:30;1.90;;;1.67;;
13487;SDS011;6816;48.506;9.050;2023-07-16T06:49:31;2.53;;;1.50;;
13487;SDS011;6816;48.506;9.050;2023-07-16T06:52:32;4.22;;;1.67;;
13487;SDS011;6816;48.506;9.050;2023-07-16T06:55:32;6.22;;;1.60;;
13487;SDS011;6816;48.506;9.050;2023-07-16T06:58:33;2.75;;;1.40;;
13487;SDS011;6816;48.506;9.050;2023-07-16T07:01:34;4.80;;;1.60;;
13487;SDS011;6816;48.506;9.050;2023-07-16T07:04:35;5.88;;;1.20;;
13487;SDS011;6816;48.506;9.050;2023-07-16T07:07:35;2.80;;;1.77;;
13487;SDS011;6816;48.506;9.050;2023-07-16T07:10:36;3.10;;;1.70;;
13487;SDS011;6816;48.506;9.050;2023-07-16T07:13:38;1.90;;;1.70;;
13487;SDS011;6816;48.506;9.050;2023-07-16T07:16:38;2.83;;;1.33;;
13487;SDS011;6816;48.506;9.050;2023-07-16T07:19:40;1.70;;;1.50;;
13487;SDS011;6816;48.506;9.050;2023-07-16T07:22:41;1.98;;;1.50;;
13487;SDS011;6816;48.506;9.050;2023-07-16T07:25:42;1.90;;;1.70;;
13487;SDS011;6816;48.506;9.050;2023-07-16T07:28:43;1.80;;;1.70;;
13487;SDS011;6816;48.506;9.050;2023-07-16T07:31:43;2.58;;;1.50;;
13487;SDS011;6816;48.506;9.050;2023-07-16T07:34:44;3.63;;;1.45;;
13487;SDS011;6816;48.506;9.050;2023-07-16T07:37:45;5.45;;;1.90;;
13487;SDS011;6816;48.506;9.050;2023-07-16T07:40:45;2.35;;;1.58;;
13487;SDS011;6816;48.506;9.050;2023-07-16T07:43:46;2.33;;;1.63;;
13487;SDS011;6816;48.506;9.050;2023-07-16T07:46:46;1.60;;;1.50;;
13487;SDS011;6816;48.506;9.050;2023-07-16T07:49:47;5.85;;;1.75;;
13487;SDS011;6816;48.506;9.050;2023-07-16T07:52:48;3.53;;;1.30;;
13487;SDS011;6816;48.506;9.050;2023-07-16T07:55:48;2.35;;;1.50;;
13487;SDS011;6816;48.506;9.050;2023-07-16T07:58:49;1.88;;;1.40;;
13487;SDS011;6816;48.506;9.050;2023-07-16T08:01:49;1.67;;;1.58;;
13487;SDS011;6816;48.506;9.050;2023-07-16T08:04:51;3.28;;;1.67;;
13487;SDS011;6816;48.506;9.050;2023-07-16T08:07:52;2.03;;;1.40;;
13487;SDS011;6816;48.506;9.050;2023-07-16T08:10:54;2.25;;;1.50;;
13487;SDS011;6816;48.506;9.050;2023-07-16T08:13:55;2.38;;;1.52;;
13487;SDS011;6816;48.506;9.050;2023-07-16T08:16:55;3.25;;;1.50;;
13487;SDS011;6816;48.506;9.050;2023-07-16T08:19:56;2.92;;;1.60;;
13487;SDS011;6816;48.506;9.050;2023-07-16T08:22:56;1.92;;;1.40;;
13487;SDS011;6816;48.506;9.050;2023-07-16T08:25:57;1.77;;;1.13;;
13487;SDS011;6816;48.506;9.050;2023-07-16T08:28:58;1.88;;;1.58;;
13487;SDS011;6816;48.506;9.050;2023-07-16T08:32:00;2.38;;;1.50;;
13487;SDS011;6816;48.506;9.050;2023-07-16T08:35:02;2.47;;;1.52;;
13487;SDS011;6816;48.506;9.050;2023-07-16T08:38:03;2.58;;;1.40;;
13487;SDS011;6816;48.506;9.050;2023-07-16T08:41:04;3.20;;;1.70;;
13487;SDS011;6816;48.506;9.050;2023-07-16T08:44:04;2.00;;;1.42;;
13487;SDS011;6816;48.506;9.050;2023-07-16T08:47:06;1.75;;;1.40;;
13487;SDS011;6816;48.506;9.050;2023-07-16T08:50:07;2.30;;;1.38;;
13487;SDS011;6816;48.506;9.050;2023-07-16T08:53:09;1.90;;;1.40;;
13487;SDS011;6816;48.506;9.050;2023-07-16T08:56:09;1.88;;;1.50;;
13487;SDS011;6816;48.506;9.050;2023-07-16T08:59:10;2.08;;;1.67;;
13487;SDS011;6816;48.506;9.050;2023-07-16T09:02:11;2.90;;;1.40;;
13487;SDS011;6816;48.506;9.050;2023-07-16T09:05:12;1.63;;;1.50;;
13487;SDS011;6816;48.506;9.050;2023-07-16T09:08:15;3.33;;;1.30;;
13487;SDS011;6816;48.506;9.050;2023-07-16T09:11:16;2.00;;;1.27;;
13487;SDS011;6816;48.506;9.050;2023-07-16T09:14:21;2.55;;;1.70;;
13487;SDS011;6816;48.506;9.050;2023-07-16T09:17:22;2.58;;;1.48;;
13487;SDS011;6816;48.506;9.050;2023-07-16T09:20:23;1.55;;;1.40;;
13487;SDS011;6816;48.506;9.050;2023-07-16T09:23:27;2.28;;;1.48;;
13487;SDS011;6816;48.506;9.050;2023-07-16T09:26:29;2.65;;;1.40;;
13487;SDS011;6816;48.506;9.050;2023-07-16T09:29:30;2.58;;;1.30;;
13487;SDS011;6816;48.506;9.050;2023-07-16T09:32:34;2.17;;;1.45;;
13487;SDS011;6816;48.506;9.050;2023-07-16T09:35:35;2.00;;;1.50;;
13487;SDS011;6816;48.506;9.050;2023-07-16T09:38:36;1.98;;;1.50;;
13487;SDS011;6816;48.506;9.050;2023-07-16T09:41:37;2.50;;;1.52;;
13487;SDS011;6816;48.506;9.050;2023-07-16T09:44:40;2.25;;;1.50;;
13487;SDS011;6816;48.506;9.050;2023-07-16T09:47:42;2.20;;;1.60;;
13487;SDS011;6816;48.506;9.050;2023-07-16T09:50:46;2.17;;;1.20;;
13487;SDS011;6816;48.506;9.050;2023-07-16T09:53:52;4.30;;;2.42;;
13487;SDS011;6816;48.506;9.050;2023-07-16T09:56:55;1.65;;;1.30;;
13487;SDS011;6816;48.506;9.050;2023-07-16T10:00:01;3.42;;;1.65;;
13487;SDS011;6816;48.506;9.050;2023-07-16T10:03:07;2.05;;;1.40;;
13487;SDS011;6816;48.506;9.050;2023-07-16T10:06:08;2.65;;;1.50;;
13487;SDS011;6816;48.506;9.050;2023-07-16T10:09:09;3.88;;;1.40;;
13487;SDS011;6816;48.506;9.050;2023-07-16T10:15:11;1.90;;;1.67;;
13487;SDS011;6816;48.506;9.050;2023-07-16T10:18:22;1.50;;;1.38;;
13487;SDS011;6816;48.506;9.050;2023-07-16T10:21:24;3.35;;;2.10;;
13487;SDS011;6816;48.506;9.050;2023-07-16T10:24:26;1.77;;;1.27;;
13487;SDS011;6816;48.506;9.050;2023-07-16T10:27:28;2.05;;;1.48;;
13487;SDS011;6816;48.506;9.050;2023-07-16T10:30:30;2.50;;;1.30;;
13487;SDS011;6816;48.506;9.050;2023-07-16T10:33:31;2.58;;;1.33;;
13487;SDS011;6816;48.506;9.050;2023-07-16T10:36:38;1.60;;;1.30;;
13487;SDS011;6816;48.506;9.050;2023-07-16T10:39:46;2.00;;;1.73;;
13487;SDS011;6816;48.506;9.050;2023-07-16T10:42:48;2.70;;;1.45;;
13487;SDS011;6816;48.506;9.050;2023-07-16T10:45:50;2.22;;;1.60;;
13487;SDS011;6816;48.506;9.050;2023-07-16T10:48:51;4.13;;;1.80;;
13487;SDS011;6816;48.506;9.050;2023-07-16T10:51:52;2.60;;;1.40;;
13487;SDS011;6816;48.506;9.050;2023-07-16T10:54:52;2.33;;;2.13;;
13487;SDS011;6816;48.506;9.050;2023-07-16T10:57:54;3.47;;;1.40;;
13487;SDS011;6816;48.506;9.050;2023-07-16T11:00:56;2.95;;;1.35;;
13487;SDS011;6816;48.506;9.050;2023-07-16T11:04:00;1.88;;;1.30;;
13487;SDS011;6816;48.506;9.050;2023-07-16T11:07:08;2.17;;;1.60;;
13487;SDS011;6816;48.506;9.050;2023-07-16T11:10:09;2.22;;;1.60;;
13487;SDS011;6816;48.506;9.050;2023-07-16T11:13:10;1.92;;;1.70;;
13487;SDS011;6816;48.506;9.050;2023-07-16T11:16:10;2.20;;;1.40;;
13487;SDS011;6816;48.506;9.050;2023-07-16T11:19:11;2.15;;;1.60;;
13487;SDS011;6816;48.506;9.050;2023-07-16T11:22:12;1.75;;;1.40;;
13487;SDS011;6816;48.506;9.050;2023-07-16T11:25:13;2.08;;;1.50;;
13487;SDS011;6816;48.506;9.050;2023-07-16T11:28:13;3.00;;;1.60;;
13487;SDS011;6816;48.506;9.050;2023-07-16T11:31:15;2.50;;;1.65;;
13487;SDS011;6816;48.506;9.050;2023-07-16T11:34:16;2.30;;;1.52;;
13487;SDS011;6816;48.506;9.050;2023-07-16T11:37:19;2.90;;;1.50;;
13487;SDS011;6816;48.506;9.050;2023-07-16T11:40:21;1.90;;;1.70;;
13487;SDS011;6816;48.506;9.050;2023-07-16T11:43:22;1.80;;;1.60;;
13487;SDS011;6816;48.506;9.050;2023-07-16T11:46:22;2.72;;;1.40;;
13487;SDS011;6816;48.506;9.050;2023-07-16T11:49:23;1.90;;;1.58;;
13487;SDS011;6816;48.506;9.050;2023-07-16T11:52:27;2.72;;;1.40;;
13487;SDS011;6816;48.506;9.050;2023-07-16T11:55:30;2.00;;;1.40;;
13487;SDS011;6816;48.506;9.050;2023-07-16T11:58:31;2.63;;;2.10;;
13487;SDS011;6816;48.506;9.050;2023-07-16T12:01:31;2.47;;;1.63;;
13487;SDS011;6816;48.506;9.050;2023-07-16T12:04:32;2.10;;;1.58;;
13487;SDS011;6816;48.506;9.050;2023-07-16T12:07:33;2.53;;;1.58;;
13487;SDS011;6816;48.506;9.050;2023-07-16T12:10:37;1.65;;;1.40;;
13487;SDS011;6816;48.506;9.050;2023-07-16T12:13:38;2.22;;;1.45;;
13487;SDS011;6816;48.506;9.050;2023-07-16T12:16:39;1.50;;;1.40;;
13487;SDS011;6816;48.506;9.050;2023-07-16T12:19:39;1.63;;;1.35;;
13487;SDS011;6816;48.506;9.050;2023-07-16T12:22:40;1.90;;;1.23;;
13487;SDS011;6816;48.506;9.050;2023-07-16T12:25:40;2.00;;;1.40;;
13487;SDS011;6816;48.506;9.050;2023-07-16T12:28:43;1.90;;;1.50;;
13487;SDS011;6816;48.506;9.050;2023-07-16T12:31:43;1.85;;;1.33;;
13487;SDS011;6816;48.506;9.050;2023-07-16T12:34:44;1.55;;;1.40;;
13487;SDS011;6816;48.506;9.050;2023-07-16T12:37:45;2.40;;;1.50;;
13487;SDS011;6816;48.506;9.050;2023-07-16T12:40:46;1.67;;;1.45;;
13487;SDS011;6816;48.506;9.050;2023-07-16T12:43:46;1.73;;;1.30;;
13487;SDS011;6816;48.506;9.050;2023-07-16T12:46:47;2.00;;;1.77;;
13487;SDS011;6816;48.506;9.050;2023-07-16T12:49:49;1.92;;;1.48;;
13487;SDS011;6816;48.506;9.050;2023-07-16T12:52:50;2.00;;;1.42;;
13487;SDS011;6816;48.506;9.050;2023-07-16T12:55:51;2.00;;;1.60;;
13487;SDS011;6816;48.506;9.050;2023-07-16T12:58:52;3.70;;;1.52;;
13487;SDS011;6816;48.506;9.050;2023-07-16T13:01:52;2.90;;;1.33;;
13487;SDS011;6816;48.506;9.050;2023-07-16T13:04:53;1.70;;;1.33;;
13487;SDS011;6816;48.506;9.050;2023-07-16T13:07:54;2.13;;;1.48;;
13487;SDS011;6816;48.506;9.050;2023-07-16T13:10:54;1.52;;;1.13;;
13487;SDS011;6816;48.506;9.050;2023-07-16T13:13:55;1.65;;;1.30;;
13487;SDS011;6816;48.506;9.050;2023-07-16T13:16:55;2.42;;;1.50;;
13487;SDS011;6816;48.506;9.050;2023-07-16T13:19:56;1.98;;;1.40;;
13487;SDS011;6816;48.506;9.050;2023-07-16T13:22:56;1.33;;;1.20;;
13487;SDS011;6816;48.506;9.050;2023-07-16T13:25:57;1.98;;;1.30;;
13487;SDS011;6816;48.506;9.050;2023-07-16T13:28:58;2.28;;;1.58;;
13487;SDS011;6816;48.506;9.050;2023-07-16T13:31:58;2.17;;;1.88;;
13487;SDS011;6816;48.506;9.050;2023-07-16T13:34:59;1.60;;;1.27;;
13487;SDS011;6816;48.506;9.050;2023-07-16T13:37:59;1.92;;;1.50;;
13487;SDS011;6816;48.506;9.050;2023-07-16T13:41:01;2.00;;;1.25;;
13487;SDS011;6816;48.506;9.050;2023-07-16T13:44:02;2.00;;;1.33;;
13487;SDS011;6816;48.506;9.050;2023-07-16T13:47:03;2.05;;;1.30;;
13487;SDS011;6816;48.506;9.050;2023-07-16T13:50:04;2.28;;;1.45;;
13487;SDS011;6816;48.506;9.050;2023-07-16T13:53:05;1.70;;;1.60;;
13487;SDS011;6816;48.506;9.050;2023-07-16T13:56:06;1.70;;;1.48;;
13487;SDS011;6816;48.506;9.050;2023-07-16T13:59:06;2.78;;;1.40;;
13487;SDS011;6816;48.506;9.050;2023-07-16T14:02:07;2.60;;;1.58;;
13487;SDS011;6816;48.506;9.050;2023-07-16T14:05:08;1.77;;;1.40;;
13487;SDS011;6816;48.506;9.050;2023-07-16T14:08:08;1.70;;;1.40;;
13487;SDS011;6816;48.506;9.050;2023-07-16T14:11:09;1.40;;;1.30;;
13487;SDS011;6816;48.506;9.050;2023-07-16T14:14:10;2.33;;;1.45;;
13487;SDS011;6816;48.506;9.050;2023-07-16T14:17:10;2.63;;;1.52;;
13487;SDS011;6816;48.506;9.050;2023-07-16T14:20:11;2.25;;;1.40;;
13487;SDS011;6816;48.506;9.050;2023-07-16T14:23:11;3.03;;;1.35;;
13487;SDS011;6816;48.506;9.050;2023-07-16T14:26:12;1.58;;;1.48;;
13487;SDS011;6816;48.506;9.050;2023-07-16T14:29:13;1.52;;;1.40;;
13487;SDS011;6816;48.506;9.050;2023-07-16T14:32:13;2.30;;;1.50;;
13487;SDS011;6816;48.506;9.050;2023-07-16T14:35:14;1.63;;;1.30;;
13487;SDS011;6816;48.506;9.050;2023-07-16T14:38:15;1.80;;;1.30;;
13487;SDS011;6816;48.506;9.050;2023-07-16T14:41:16;2.75;;;1.50;;
13487;SDS011;6816;48.506;9.050;2023-07-16T14:44:17;1.55;;;1.45;;
13487;SDS011;6816;48.506;9.050;2023-07-16T14:47:17;2.13;;;1.65;;
13487;SDS011;6816;48.506;9.050;2023-07-16T14:50:18;2.85;;;1.73;;
13487;SDS011;6816;48.506;9.050;2023-07-16T14:53:18;1.30;;;1.20;;
13487;SDS011;6816;48.506;9.050;2023-07-16T14:56:19;2.25;;;1.60;;
13487;SDS011;6816;48.506;9.050;2023-07-16T14:59:20;1.70;;;1.48;;
13487;SDS011;6816;48.506;9.050;2023-07-16T15:02:21;1.63;;;1.42;;
13487;SDS011;6816;48.506;9.050;2023-07-16T15:05:22;1.88;;;1.30;;
13487;SDS011;6816;48.506;9.050;2023-07-16T15:08:22;2.15;;;1.40;;
13487;SDS011;6816;48.506;9.050;2023-07-16T15:11:23;6.10;;;1.70;;
13487;SDS011;6816;48.506;9.050;2023-07-16T15:14:24;2.28;;;1.52;;
13487;SDS011;6816;48.506;9.050;2023-07-16T15:17:25;1.30;;;1.20;;
13487;SDS011;6816;48.506;9.050;2023-07-16T15:20:25;2.85;;;1.48;;
13487;SDS011;6816;48.506;9.050;2023-07-16T15:23:26;1.70;;;1.40;;
13487;SDS011;6816;48.506;9.050;2023-07-16T15:26:27;2.15;;;1.50;;
13487;SDS011;6816;48.506;9.050;2023-07-16T15:29:28;1.75;;;1.20;;
13487;SDS011;6816;48.506;9.050;2023-07-16T15:32:29;2.05;;;1.40;;
13487;SDS011;6816;48.506;9.050;2023-07-16T15:35:29;2.55;;;1.70;;
13487;SDS011;6816;48.506;9.050;2023-07-16T15:38:30;1.40;;;1.30;;
13487;SDS011;6816;48.506;9.050;2023-07-16T15:41:31;1.88;;;1.33;;
13487;SDS011;6816;48.506;9.050;2023-07-16T15:44:31;2.28;;;1.73;;
13487;SDS011;6816;48.506;9.050;2023-07-16T15:47:32;1.90;;;1.60;;
13487;SDS011;6816;48.506;9.050;2023-07-16T15:50:33;1.85;;;1.67;;
13487;SDS011;6816;48.506;9.050;2023-07-16T15:53:34;1.85;;;1.45;;
13487;SDS011;6816;48.506;9.050;2023-07-16T15:56:35;2.28;;;1.58;;
13487;SDS011;6816;48.506;9.050;2023-07-16T15:59:35;2.13;;;1.50;;
13487;SDS011;6816;48.506;9.050;2023-07-16T16:02:36;1.95;;;1.50;;
13487;SDS011;6816;48.506;9.050;2023-07-16T16:05:36;1.25;;;1.15;;
13487;SDS011;6816;48.506;9.050;2023-07-16T16:08:37;2.38;;;1.65;;
13487;SDS011;6816;48.506;9.050;2023-07-16T16:11:37;2.00;;;1.52;;
13487;SDS011;6816;48.506;9.050;2023-07-16T16:14:38;1.88;;;1.63;;
13487;SDS011;6816;48.506;9.050;2023-07-16T16:17:39;3.22;;;1.70;;
13487;SDS011;6816;48.506;9.050;2023-07-16T16:20:40;2.15;;;1.95;;
13487;SDS011;6816;48.506;9.050;2023-07-16T16:23:42;2.67;;;1.88;;
13487;SDS011;6816;48.506;9.050;2023-07-16T16:26:43;2.33;;;1.83;;
13487;SDS011;6816;48.506;9.050;2023-07-16T16:29:43;2.55;;;1.90;;
13487;SDS011;6816;48.506;9.050;2023-07-16T16:32:44;1.95;;;1.75;;
13487;SDS011;6816;48.506;9.050;2023-07-16T16:35:44;1.90;;;1.80;;
13487;SDS011;6816;48.506;9.050;2023-07-16T16:38:45;1.98;;;1.75;;
13487;SDS011;6816;48.506;9.050;2023-07-16T16:41:45;3.58;;;2.10;;
13487;SDS011;6816;48.506;9.050;2023-07-16T16:44:47;2.75;;;2.40;;
13487;SDS011;6816;48.506;9.050;2023-07-16T16:47:48;2.00;;;1.80;;
13487;SDS011;6816;48.506;9.050;2023-07-16T16:50:49;1.95;;;1.50;;
13487;SDS011;6816;48.506;9.050;2023-07-16T16:53:50;2.00;;;1.80;;
13487;SDS011;6816;48.506;9.050;2023-07-16T16:56:51;2.05;;;1.67;;
13487;SDS011;6816;48.506;9.050;2023-07-16T16:59:52;1.60;;;1.50;;
13487;SDS011;6816;48.506;9.050;2023-07-16T17:02:53;1.80;;;1.70;;
13487;SDS011;6816;48.506;9.050;2023-07-16T17:05:53;2.78;;;2.05;;
13487;SDS011;6816;48.506;9.050;2023-07-16T17:08:57;3.67;;;1.67;;
13487;SDS011;6816;48.506;9.050;2023-07-16T17:11:57;3.13;;;1.73;;
13487;SDS011;6816;48.506;9.050;2023-07-16T17:14:58;2.08;;;1.70;;
13487;SDS011;6816;48.506;9.050;2023-07-16T17:17:59;3.08;;;1.80;;
13487;SDS011;6816;48.506;9.050;2023-07-16T17:20:59;2.30;;;1.38;;
13487;SDS011;6816;48.506;9.050;2023-07-16T17:24:00;2.13;;;1.48;;
13487;SDS011;6816;48.506;9.050;2023-07-16T17:27:02;2.03;;;1.55;;
13487;SDS011;6816;48.506;9.050;2023-07-16T17:30:02;3.00;;;1.35;;
13487;SDS011;6816;48.506;9.050;2023-07-16T17:33:03;2.65;;;1.67;;
13487;SDS011;6816;48.506;9.050;2023-07-16T17:36:04;2.55;;;1.60;;
13487;SDS011;6816;48.506;9.050;2023-07-16T17:39:05;2.47;;;1.60;;
13487;SDS011;6816;48.506;9.050;2023-07-16T17:42:06;1.60;;;1.42;;
13487;SDS011;6816;48.506;9.050;2023-07-16T17:45:08;2.25;;;1.42;;
13487;SDS011;6816;48.506;9.050;2023-07-16T17:48:10;1.90;;;1.60;;
13487;SDS011;6816;48.506;9.050;2023-07-16T17:51:11;1.75;;;1.65;;
13487;SDS011;6816;48.506;9.050;2023-07-16T17:54:12;2.03;;;1.60;;
13487;SDS011;6816;48.506;9.050;2023-07-16T17:57:13;3.03;;;1.65;;
13487;SDS011;6816;48.506;9.050;2023-07-16T18:00:14;2.67;;;1.77;;
13487;SDS011;6816;48.506;9.050;2023-07-16T18:03:14;2.38;;;1.83;;
13487;SDS011;6816;48.506;9.050;2023-07-16T18:06:15;1.98;;;1.80;;
13487;SDS011;6816;48.506;9.050;2023-07-16T18:09:15;2.53;;;1.88;;
13487;SDS011;6816;48.506;9.050;2023-07-16T18:12:16;2.05;;;1.60;;
13487;SDS011;6816;48.506;9.050;2023-07-16T18:15:17;2.47;;;2.05;;
13487;SDS011;6816;48.506;9.050;2023-07-16T18:18:17;2.03;;;1.83;;
13487;SDS011;6816;48.506;9.050;2023-07-16T18:21:18;1.95;;;1.60;;
13487;SDS011;6816;48.506;9.050;2023-07-16T18:24:19;2.20;;;1.50;;
13487;SDS011;6816;48.506;9.050;2023-07-16T18:27:20;1.65;;;1.55;;
13487;SDS011;6816;48.506;9.050;2023-07-16T18:30:21;3.70;;;1.85;;
13487;SDS011;6816;48.506;9.050;2023-07-16T18:33:21;3.45;;;1.60;;
13487;SDS011;6816;48.506;9.050;2023-07-16T18:36:22;1.55;;;1.45;;